Meteorología y climatología de Navarra
Datos de la estación - Meteo Navarra

Estación de Eltzaburu GN

Altitud 588 m.


Datos desde el 11/10/2018 hasta el 12/10/2018 en horario solar
Los datos son PROVISIONALES

Anterior Página 1 de 1 Siguiente Descargar: Formato para Excel 2000 o superior   Formato csv   Formato para OpenOffice Calc
Fecha Temperatura Humedad relativa Radiación global Insolación Precipitación Velocidad viento 10 m Velocidad viento 10 m Dirección viento 10 m
ºC % W/m² s l/m² m/s km/h º
11/10/2018 0:00 13.3 86 0.0 0 0.0 2.7 9.5 182
11/10/2018 0:10 13.5 86 0.0 0 0.0 2.8 10.0 183
11/10/2018 0:20 13.6 85 0.0 0 0.0 1.6 5.8 160
11/10/2018 0:30 13.6 84 0.0 0 0.0 1.6 5.7 169
11/10/2018 0:40 13.7 84 0.0 0 0.0 1.7 6.3 170
11/10/2018 0:50 13.7 85 0.0 0 0.0 1.7 6.2 159
11/10/2018 1:00 13.9 83 0.0 0 0.0 2.0 7.1 162
11/10/2018 1:10 14.2 83 0.0 0 0.0 2.5 9.1 163
11/10/2018 1:20 14.2 82 0.0 0 0.0 1.4 4.9 158
11/10/2018 1:30 14.4 82 0.0 0 0.0 2.8 10.2 170
11/10/2018 1:40 14.9 80 0.0 0 0.0 3.0 10.9 172
11/10/2018 1:50 15.0 80 0.0 0 0.0 3.2 11.4 171
11/10/2018 2:00 15.0 80 0.0 0 0.0 2.6 9.4 168
11/10/2018 2:10 14.5 83 0.0 0 0.0 1.9 7.0 162
11/10/2018 2:20 14.3 84 0.0 0 0.0 1.6 5.7 156
11/10/2018 2:30 14.1 85 0.0 0 0.0 0.7 2.4 125
11/10/2018 2:40 13.7 88 0.0 0 0.0 0.6 2.2 127
11/10/2018 2:50 13.8 86 0.0 0 0.0 0.9 3.1 181
11/10/2018 3:00 14.5 83 0.0 0 0.0 0.8 2.8 204
11/10/2018 3:10 14.4 85 0.0 0 0.0 1.0 3.7 153
11/10/2018 3:20 14.9 81 0.0 0 0.0 2.0 7.3 168
11/10/2018 3:30 15.3 79 0.0 0 0.0 1.0 3.6 150
11/10/2018 3:40 15.2 79 0.0 0 0.0 1.3 4.7 154
11/10/2018 3:50 15.3 78 0.0 0 0.0 0.8 2.7 148
11/10/2018 4:00 15.2 79 0.0 0 0.0 1.1 3.8 164
11/10/2018 4:10 15.3 78 0.0 0 0.0 0.6 2.1 44
11/10/2018 4:20 14.9 81 0.0 0 0.0 1.2 4.5 344
11/10/2018 4:30 14.5 82 0.0 0 0.0 1.1 4.0 354
11/10/2018 4:40 15.2 79 0.0 0 0.0 1.4 5.1 199
11/10/2018 4:50 15.6 77 0.0 0 0.0 2.5 8.9 172
11/10/2018 5:00 15.6 77 0.0 0 0.0 2.0 7.1 171
11/10/2018 5:10 15.6 77 0.0 0 0.0 1.6 5.7 169
11/10/2018 5:20 15.5 77 0.0 0 0.0 1.1 3.8 141
11/10/2018 5:30 15.7 77 0.0 0 0.0 0.7 2.4 182
11/10/2018 5:40 15.9 76 0.0 0 0.0 1.0 3.4 247
11/10/2018 5:50 15.9 77 0.0 0 0.0 0.7 2.6 299
11/10/2018 6:00 15.7 78 0.0 0 0.0 1.0 3.5 282
11/10/2018 6:10 15.4 81 0.0 0 0.0 2.0 7.1 203
11/10/2018 6:20 15.8 78 0.0 0 0.0 3.5 12.7 183
11/10/2018 6:30 16.1 77 0.0 0 0.0 3.5 12.6 174
11/10/2018 6:40 16.1 77 0.0 0 0.0 2.9 10.5 172
11/10/2018 6:50 16.0 78 10.3 0 0.0 2.5 9.1 167
11/10/2018 7:00 15.8 79 19.1 0 0.0 2.3 8.2 165
11/10/2018 7:10 15.8 78 31.0 0 0.0 2.7 9.6 168
11/10/2018 7:20 15.9 78 41.9 0 0.0 3.2 11.4 168
11/10/2018 7:30 15.9 78 54.9 0 0.0 3.6 12.8 172
11/10/2018 7:40 16.0 78 67.9 0 0.0 3.4 12.3 171
11/10/2018 7:50 16.2 78 93.8 0 0.0 3.5 12.4 166
11/10/2018 8:00 16.4 77 131.2 0 0.0 2.3 8.4 163
11/10/2018 8:10 16.6 76 143.6 0 0.0 3.2 11.4 165
11/10/2018 8:20 16.7 77 155.4 0 0.0 2.2 8.1 168
11/10/2018 8:30 16.8 76 152.5 0 0.0 2.5 8.9 174
11/10/2018 8:40 17.0 76 143.3 0 0.0 1.9 6.9 168
11/10/2018 8:50 17.1 75 191.9 18 0.0 2.2 7.9 171
11/10/2018 9:00 17.4 74 167.5 0 0.0 2.5 9.1 178
11/10/2018 9:10 17.5 74 128.8 0 0.0 2.2 7.8 173
11/10/2018 9:20 17.7 74 211.4 116 0.0 1.7 6.2 167
11/10/2018 9:30 18.2 72 264.4 152 0.0 2.0 7.2 168
11/10/2018 9:40 18.5 71 274.8 266 0.0 2.1 7.7 165
11/10/2018 9:50 18.9 71 368.8 574 0.0 2.0 7.0 164
11/10/2018 10:00 19.3 69 392.5 558 0.0 2.4 8.8 166
11/10/2018 10:10 19.1 69 212.2 14 0.0 1.8 6.6 163
11/10/2018 10:20 18.7 70 92.0 0 0.0 1.8 6.4 162
11/10/2018 10:30 18.3 72 49.3 0 0.0 1.6 5.7 161
11/10/2018 10:40 18.3 71 76.0 0 0.0 2.4 8.7 163
11/10/2018 10:50 18.8 68 72.1 0 0.0 2.8 10.0 170
11/10/2018 11:00 19.0 67 127.8 0 0.0 3.1 11.1 170
11/10/2018 11:10 19.2 65 49.9 0 0.0 3.3 12.0 171
11/10/2018 11:20 19.0 66 57.8 0 0.0 4.3 15.5 179
11/10/2018 11:30 19.2 65 71.5 0 0.0 4.1 14.9 184
11/10/2018 11:40 19.2 65 89.6 0 0.0 3.8 13.7 180
11/10/2018 11:50 19.3 65 109.6 0 0.0 3.4 12.3 176
11/10/2018 12:00 19.3 65 135.4 0 0.0 4.2 15.0 170
11/10/2018 12:10 19.3 66 172.6 0 0.0 3.7 13.4 165
11/10/2018 12:20 19.3 66 179.8 0 0.0 3.4 12.1 165
11/10/2018 12:30 19.3 67 183.6 0 0.0 3.4 12.3 169
11/10/2018 12:40 19.3 68 104.2 0 0.0 2.2 7.8 171
11/10/2018 12:50 19.1 68 67.0 0 0.0 2.4 8.6 177
11/10/2018 13:00 19.1 68 81.3 0 0.0 3.0 10.6 171
11/10/2018 13:10 19.4 67 106.0 0 0.0 3.0 10.9 174
11/10/2018 13:20 19.4 67 102.4 0 0.0 2.8 10.2 171
11/10/2018 13:30 19.8 66 270.7 170 0.0 3.2 11.3 172
11/10/2018 13:40 20.5 64 263.7 178 0.0 2.5 9.1 172
11/10/2018 13:50 20.6 63 288.8 164 0.0 2.5 9.0 177
11/10/2018 14:00 20.6 63 214.7 0 0.0 3.5 12.6 168
11/10/2018 14:10 20.3 63 317.9 242 0.0 4.3 15.4 173
11/10/2018 14:20 20.7 62 245.7 90 0.0 3.6 12.8 165
11/10/2018 14:30 20.6 63 182.4 28 0.0 2.4 8.6 167
11/10/2018 14:40 20.4 64 138.8 0 0.0 2.7 9.8 163
11/10/2018 14:50 20.4 64 140.0 0 0.0 3.2 11.6 167
11/10/2018 15:00 20.5 63 169.6 106 0.0 3.6 13.1 169
11/10/2018 15:10 20.3 64 70.2 0 0.0 4.2 15.0 171
11/10/2018 15:20 19.9 68 92.0 0 0.0 3.2 11.4 176
11/10/2018 15:30 19.4 71 90.6 0 0.0 3.5 12.6 170
11/10/2018 15:40 19.5 70 88.4 0 0.0 3.1 11.1 175
11/10/2018 15:50 19.7 68 23.1 0 0.0 3.7 13.3 189
11/10/2018 16:00 18.7 77 44.6 0 0.2 2.9 10.6 190
11/10/2018 16:10 17.7 86 46.9 0 0.0 1.7 6.2 208
11/10/2018 16:20 17.6 86 14.3 0 0.0 1.6 5.6 211
11/10/2018 16:30 17.4 86 18.9 0 0.0 1.3 4.8 178
11/10/2018 16:40 17.4 88 19.0 0 0.0 0.8 2.8 198
11/10/2018 16:50 17.5 86 1.8 0 0.1 2.0 7.3 191
11/10/2018 17:00 17.3 89 0.0 0 0.2 1.1 4.1 219
11/10/2018 17:10 16.7 93 0.0 0 0.1 0.5 1.7 338
11/10/2018 17:20 16.5 95 0.0 0 0.0 1.1 4.1 2
11/10/2018 17:30 16.3 96 0.0 0 0.0 1.2 4.2 14
11/10/2018 17:40 16.1 96 0.0 0 0.0 0.2 0.8 292
11/10/2018 17:50 16.0 97 0.0 0 0.0 0.2 0.6 243
11/10/2018 18:00 15.8 97 0.0 0 0.0 0.2 0.9 192
11/10/2018 18:10 15.6 98 0.0 0 0.0 0.1 0.5 255
11/10/2018 18:20 15.4 98 0.0 0 0.0 0.6 2.1 349
11/10/2018 18:30 15.3 99 0.0 0 0.0 0.6 2.0 7
11/10/2018 18:40 15.4 99 0.0 0 0.0 0.4 1.4 350
11/10/2018 18:50 15.3 99 0.0 0 0.0 0.7 2.6 348
11/10/2018 19:00 15.4 100 0.0 0 0.0 0.9 3.3 356
11/10/2018 19:10 15.4 99 0.0 0 0.0 0.6 2.3 30
11/10/2018 19:20 15.3 99 0.0 0 0.0 0.8 2.9 357
11/10/2018 19:30 15.3 98 0.0 0 0.0 1.4 4.9 341
11/10/2018 19:40 15.6 97 0.0 0 0.0 1.5 5.3 346
11/10/2018 19:50 15.8 96 0.0 0 0.0 1.1 4.0 358
11/10/2018 20:00 15.9 95 0.0 0 0.0 0.6 2.2 348
11/10/2018 20:10 15.9 95 0.0 0 0.0 0.7 2.4 358
11/10/2018 20:20 15.7 95 0.0 0 0.0 0.3 0.9 104
11/10/2018 20:30 15.5 96 0.0 0 0.0 0.5 1.6 33
11/10/2018 20:40 15.1 98 0.0 0 0.0 1.6 5.6 349
11/10/2018 20:50 15.3 95 0.0 0 0.0 0.6 2.3 77
11/10/2018 21:00 15.5 95 0.0 0 0.0 0.3 1.0 98
11/10/2018 21:10 15.7 92 0.0 0 0.0 0.5 1.7 133
11/10/2018 21:20 15.7 93 0.0 0 0.0 0.6 2.2 20
11/10/2018 21:30 15.8 91 0.0 0 0.0 0.3 1.2 110
11/10/2018 21:40 15.8 91 0.0 0 0.0 0.5 1.8 331
11/10/2018 21:50 15.9 91 0.0 0 0.0 0.9 3.3 153
11/10/2018 22:00 16.1 90 0.0 0 0.0 0.7 2.6 138
11/10/2018 22:10 15.8 92 0.0 0 0.0 0.9 3.1 128
11/10/2018 22:20 15.7 92 0.0 0 0.0 0.8 2.9 111
11/10/2018 22:30 15.6 93 0.0 0 0.0 0.8 3.0 116
11/10/2018 22:40 15.4 93 0.0 0 0.0 0.5 1.7 126
11/10/2018 22:50 15.4 93 0.0 0 0.0 0.5 1.9 104
11/10/2018 23:00 15.5 92 0.0 0 0.0 0.5 1.9 136
11/10/2018 23:10 15.8 89 0.0 0 0.0 0.7 2.7 140
11/10/2018 23:20 15.8 89 0.0 0 0.0 0.6 2.3 127
11/10/2018 23:30 15.7 90 0.0 0 0.0 0.5 1.7 84
11/10/2018 23:40 15.6 91 0.0 0 0.0 0.7 2.3 128
11/10/2018 23:50 15.4 91 0.0 0 0.0 0.9 3.1 143
Anterior Página 1 de 1 Siguiente

NOTA: Tipo de datos según el color:
   - Valores diarios o 10 minutos correctos
   - Valores diarios calculados a partir de un número de datos 10 minutos menor que 144 y mayor que 120, o de un número de datos semihorarios menor que 48 y mayor que 40 (caso de las estaciones de Riegos de Navarra y del MARM)
   - Valores diez minutos estimados


Contacto        Enlaces        Aviso legal